createdAt,value
2023-09-09T00:02:06.842Z,95126.13
2023-09-09T00:04:33.374Z,95120.91
2023-09-09T00:06:59.858Z,95117.94
2023-09-09T00:09:26.344Z,95119.41
2023-09-09T00:11:52.771Z,95119.56
2023-09-09T00:14:19.272Z,95115.38
2023-09-09T00:16:45.741Z,95119.78
2023-09-09T00:19:12.237Z,95119.25
2023-09-09T00:21:38.774Z,95122.19
2023-09-09T00:24:05.299Z,95124.28
2023-09-09T00:26:31.821Z,95120.56
2023-09-09T00:28:58.306Z,95124.81
2023-09-09T00:31:24.844Z,95122.09
2023-09-09T00:33:51.380Z,95123.84
2023-09-09T00:36:17.846Z,95120.00
2023-09-09T00:38:49.090Z,95128.88
2023-09-09T00:41:18.759Z,95123.25
2023-09-09T00:43:45.314Z,95117.81
2023-09-09T00:46:11.877Z,95118.31
2023-09-09T00:48:38.475Z,95124.00
2023-09-09T00:51:04.945Z,95122.00
2023-09-09T00:53:31.424Z,95125.22
2023-09-09T00:55:57.858Z,95120.44
2023-09-09T00:58:24.369Z,95122.78
2023-09-09T01:00:50.814Z,95122.50
2023-09-09T01:03:17.407Z,95125.00
2023-09-09T01:05:43.912Z,95119.63
2023-09-09T01:08:10.368Z,95125.53
2023-09-09T01:10:36.805Z,95120.28
2023-09-09T01:13:03.274Z,95122.53
2023-09-09T01:15:29.766Z,95121.97
2023-09-09T01:17:56.239Z,95117.31
2023-09-09T01:20:22.722Z,95118.81
2023-09-09T01:22:49.216Z,95120.28
2023-09-09T01:25:15.719Z,95120.56
2023-09-09T01:27:43.132Z,95118.22
2023-09-09T01:30:09.736Z,95127.41
2023-09-09T01:32:36.293Z,95124.59
2023-09-09T01:35:02.758Z,95119.06
2023-09-09T01:37:29.262Z,95116.38
2023-09-09T01:39:55.810Z,95128.94
2023-09-09T01:42:22.303Z,95123.13
2023-09-09T01:44:48.723Z,95128.06
2023-09-09T01:47:15.149Z,95122.41
2023-09-09T01:49:41.614Z,95125.25
2023-09-09T01:52:08.109Z,95121.38
2023-09-09T01:54:34.748Z,95116.72
2023-09-09T01:57:01.228Z,95118.75
2023-09-09T01:59:27.698Z,95121.44
2023-09-09T02:01:54.127Z,95119.97
2023-09-09T02:04:20.554Z,95115.66
2023-09-09T02:06:46.980Z,95126.31
2023-09-09T02:09:14.478Z,95126.31
2023-09-09T02:11:40.957Z,95130.34
2023-09-09T02:14:07.454Z,95124.38
2023-09-09T02:16:34.051Z,95126.66
2023-09-09T02:19:01.583Z,95125.75
2023-09-09T02:21:28.190Z,95133.19
2023-09-09T02:23:54.645Z,95126.16
2023-09-09T02:26:21.224Z,95122.25
2023-09-09T02:28:47.734Z,95125.75
2023-09-09T02:31:14.342Z,95117.38
2023-09-09T02:33:40.808Z,95122.72
2023-09-09T02:36:07.274Z,95115.78
2023-09-09T02:38:33.705Z,95121.50
2023-09-09T02:41:00.131Z,95125.75
2023-09-09T02:43:26.565Z,95129.25
2023-09-09T02:45:53.011Z,95128.19
2023-09-09T02:48:19.494Z,95128.59
2023-09-09T02:50:45.941Z,95131.34
2023-09-09T02:53:12.380Z,95127.19
2023-09-09T02:55:38.870Z,95125.75
2023-09-09T02:58:05.394Z,95129.16
2023-09-09T03:00:31.923Z,95130.66
2023-09-09T03:02:58.518Z,95135.38
2023-09-09T03:05:24.993Z,95129.47
2023-09-09T03:07:52.468Z,95145.00
2023-09-09T03:10:18.976Z,95134.41
2023-09-09T03:12:45.428Z,95144.03
2023-09-09T03:15:11.905Z,95137.13
2023-09-09T03:17:38.495Z,95134.16
2023-09-09T03:20:04.959Z,95132.88
2023-09-09T03:22:31.398Z,95143.94
2023-09-09T03:24:57.824Z,95139.75
2023-09-09T03:27:24.260Z,95144.63
2023-09-09T03:29:50.742Z,95139.97
2023-09-09T03:32:17.170Z,95138.00
2023-09-09T03:34:43.630Z,95140.19
2023-09-09T03:37:10.109Z,95146.81
2023-09-09T03:39:36.614Z,95145.03
2023-09-09T03:42:03.062Z,95143.03
2023-09-09T03:44:29.711Z,95146.69
2023-09-09T03:46:56.170Z,95139.78
2023-09-09T03:49:22.633Z,95135.22
2023-09-09T03:51:49.078Z,95139.91
2023-09-09T03:54:15.503Z,95142.41
2023-09-09T03:56:41.960Z,95143.13
2023-09-09T03:59:08.658Z,95131.81
2023-09-09T04:01:35.271Z,95143.41
2023-09-09T04:04:01.782Z,95141.91
2023-09-09T04:06:28.379Z,95135.50
2023-09-09T04:08:54.823Z,95141.19
2023-09-09T04:11:21.250Z,95136.72
2023-09-09T04:13:47.720Z,95143.09
2023-09-09T04:16:14.207Z,95144.56
2023-09-09T04:21:09.944Z,95140.84
2023-09-09T04:23:36.592Z,95142.09
2023-09-09T04:26:03.305Z,95137.59
2023-09-09T04:28:29.843Z,95144.97
2023-09-09T04:30:56.343Z,95145.94
2023-09-09T04:33:22.777Z,95142.94
2023-09-09T04:35:49.218Z,95138.28
2023-09-09T04:38:15.667Z,95143.22
2023-09-09T04:40:42.087Z,95142.75
2023-09-09T04:43:08.519Z,95143.69
2023-09-09T04:45:35.046Z,95145.41
2023-09-09T04:48:02.839Z,95147.63
2023-09-09T04:50:29.499Z,95146.63
2023-09-09T04:52:55.945Z,95147.56
2023-09-09T04:55:22.372Z,95146.56
2023-09-09T04:57:48.821Z,95147.31
2023-09-09T05:00:15.287Z,95144.66
2023-09-09T05:02:41.774Z,95150.81
2023-09-09T05:05:08.319Z,95156.03
2023-09-09T05:07:34.873Z,95151.34
2023-09-09T05:10:01.356Z,95158.69
2023-09-09T05:12:27.861Z,95153.25
2023-09-09T05:14:54.353Z,95160.44
2023-09-09T05:17:20.812Z,95161.22
2023-09-09T05:19:47.280Z,95167.59
2023-09-09T05:22:13.756Z,95165.16
2023-09-09T05:24:40.281Z,95170.59
2023-09-09T05:27:06.724Z,95175.19
2023-09-09T05:29:33.178Z,95171.75
2023-09-09T05:31:59.742Z,95173.59
2023-09-09T05:34:26.245Z,95181.78
2023-09-09T05:36:52.723Z,95178.84
2023-09-09T05:39:19.180Z,95176.22
2023-09-09T05:41:45.630Z,95178.19
2023-09-09T05:44:12.120Z,95189.44
2023-09-09T05:46:38.588Z,95177.13
2023-09-09T05:49:05.052Z,95182.53
2023-09-09T05:51:31.484Z,95181.25
2023-09-09T05:53:58.076Z,95183.81
2023-09-09T05:56:24.612Z,95171.69
2023-09-09T05:58:51.077Z,95175.69
2023-09-09T06:01:17.557Z,95178.72
2023-09-09T06:03:44.077Z,95190.38
2023-09-09T06:06:10.591Z,95185.63
2023-09-09T06:08:37.136Z,95192.25
2023-09-09T06:11:03.589Z,95193.09
2023-09-09T06:13:30.053Z,95197.56
2023-09-09T06:15:56.514Z,95199.47
2023-09-09T06:18:22.964Z,95201.47
2023-09-09T06:20:49.403Z,95204.53
2023-09-09T06:23:15.843Z,95200.81
2023-09-09T06:25:42.289Z,95202.50
2023-09-09T06:28:08.721Z,95204.06
2023-09-09T06:30:35.156Z,95206.97
2023-09-09T06:33:01.628Z,95203.34
2023-09-09T06:35:28.090Z,95209.25
2023-09-09T06:37:54.521Z,95215.59
2023-09-09T06:40:20.937Z,95212.63
2023-09-09T06:42:47.396Z,95207.00
2023-09-09T06:45:13.850Z,95208.09
2023-09-09T06:47:40.345Z,95205.97
2023-09-09T06:50:06.867Z,95215.22
2023-09-09T06:52:33.321Z,95214.28
2023-09-09T06:54:59.782Z,95220.66
2023-09-09T06:57:26.603Z,95204.25
2023-09-09T06:59:53.038Z,95209.19
2023-09-09T07:02:19.453Z,95223.16
2023-09-09T07:04:46.072Z,95225.16
2023-09-09T07:07:13.977Z,95218.91
2023-09-09T07:09:44.643Z,95220.00
2023-09-09T07:12:11.141Z,95219.31
2023-09-09T07:14:40.016Z,95228.00
2023-09-09T07:17:08.034Z,95222.50
2023-09-09T07:19:34.515Z,95232.19
2023-09-09T07:22:00.980Z,95231.06
2023-09-09T07:24:27.445Z,95235.00
2023-09-09T07:26:53.948Z,95227.25
2023-09-09T07:29:20.448Z,95227.63
2023-09-09T07:31:46.955Z,95236.28
2023-09-09T07:34:13.470Z,95236.19
2023-09-09T07:36:39.928Z,95229.22
2023-09-09T07:39:06.369Z,95233.22
2023-09-09T07:41:32.845Z,95227.03
2023-09-09T07:43:59.391Z,95228.66
2023-09-09T07:46:25.875Z,95233.31
2023-09-09T07:48:52.300Z,95231.78
2023-09-09T07:51:18.741Z,95237.97
2023-09-09T07:53:45.186Z,95231.81
2023-09-09T07:56:11.688Z,95235.16
2023-09-09T07:58:38.213Z,95230.53
2023-09-09T08:01:04.707Z,95238.53
2023-09-09T08:03:31.325Z,95236.13
2023-09-09T08:05:57.880Z,95228.19
2023-09-09T08:08:24.337Z,95228.06
2023-09-09T08:10:50.757Z,95241.69
2023-09-09T08:13:17.241Z,95240.03
2023-09-09T08:15:43.760Z,95245.44
2023-09-09T08:18:10.316Z,95238.41
2023-09-09T08:20:36.778Z,95238.50
2023-09-09T08:23:03.211Z,95243.88
2023-09-09T08:25:29.713Z,95234.59
2023-09-09T08:27:56.140Z,95231.13
2023-09-09T08:30:22.691Z,95234.59
2023-09-09T08:32:49.393Z,95234.25
2023-09-09T08:35:16.034Z,95231.81
2023-09-09T08:37:42.464Z,95241.34
2023-09-09T08:40:08.893Z,95241.72
2023-09-09T08:42:35.370Z,95240.50
2023-09-09T08:45:01.862Z,95239.66
2023-09-09T08:47:29.509Z,95248.88
2023-09-09T08:49:56.095Z,95246.19
2023-09-09T08:52:22.574Z,95251.13
2023-09-09T08:54:49.070Z,95246.09
2023-09-09T08:57:15.595Z,95251.59
2023-09-09T08:59:42.097Z,95252.50
2023-09-09T09:02:08.553Z,95247.75
2023-09-09T09:04:35.273Z,95246.59
2023-09-09T09:07:01.737Z,95249.75
2023-09-09T09:09:28.181Z,95249.69
2023-09-09T09:11:54.599Z,95252.06
2023-09-09T09:14:21.034Z,95244.06
2023-09-09T09:16:47.509Z,95242.59
2023-09-09T09:19:13.951Z,95244.34
2023-09-09T09:21:40.391Z,95236.53
2023-09-09T09:24:06.824Z,95235.88
2023-09-09T09:26:33.295Z,95237.91
2023-09-09T09:28:59.729Z,95241.59
2023-09-09T09:31:26.225Z,95243.09
2023-09-09T09:33:52.800Z,95241.78
2023-09-09T09:36:19.235Z,95230.56
2023-09-09T09:38:45.658Z,95239.41
2023-09-09T09:41:12.116Z,95235.97
2023-09-09T09:43:38.683Z,95233.69
2023-09-09T09:46:05.448Z,95245.84
2023-09-09T09:48:31.883Z,95240.38
2023-09-09T09:50:58.287Z,95237.56
2023-09-09T09:53:24.725Z,95239.41
2023-09-09T09:55:51.139Z,95235.06
2023-09-09T09:58:17.571Z,95237.63
2023-09-09T10:00:44.026Z,95236.16
2023-09-09T10:03:10.543Z,95231.34
2023-09-09T10:05:37.045Z,95230.03
2023-09-09T10:08:03.497Z,95229.88
2023-09-09T10:10:29.943Z,95236.25
2023-09-09T10:12:56.505Z,95234.81
2023-09-09T10:15:22.992Z,95225.78
2023-09-09T10:17:49.426Z,95226.09
2023-09-09T10:20:16.005Z,95228.56
2023-09-09T10:22:42.624Z,95227.34
2023-09-09T10:25:09.215Z,95222.56
2023-09-09T10:27:35.697Z,95228.41
2023-09-09T10:30:02.128Z,95222.56
2023-09-09T10:32:28.576Z,95217.13
2023-09-09T10:34:55.431Z,95220.72
2023-09-09T10:37:21.909Z,95217.63
2023-09-09T10:39:48.365Z,95225.13
2023-09-09T10:42:14.841Z,95214.94
2023-09-09T10:44:41.253Z,95212.13
2023-09-09T10:47:07.734Z,95215.75
2023-09-09T10:49:34.254Z,95206.31
2023-09-09T10:52:04.685Z,95206.19
2023-09-09T10:54:31.729Z,95201.63
2023-09-09T10:56:58.191Z,95202.88
2023-09-09T10:59:24.630Z,95195.56
2023-09-09T11:01:51.131Z,95196.25
2023-09-09T11:04:17.693Z,95197.59
2023-09-09T11:06:44.154Z,95202.03
2023-09-09T11:09:10.618Z,95198.94
2023-09-09T11:11:37.053Z,95196.06
2023-09-09T11:14:03.583Z,95187.66
2023-09-09T11:16:30.103Z,95185.75
2023-09-09T11:18:56.620Z,95182.41
2023-09-09T11:21:23.202Z,95183.81
2023-09-09T11:23:49.677Z,95186.19
2023-09-09T11:26:16.109Z,95175.53
2023-09-09T11:28:42.546Z,95185.94
2023-09-09T11:31:09.020Z,95181.00
2023-09-09T11:33:35.470Z,95183.47
2023-09-09T11:36:01.999Z,95173.56
2023-09-09T11:38:28.452Z,95177.28
2023-09-09T11:40:54.945Z,95174.06
2023-09-09T11:43:21.372Z,95162.09
2023-09-09T11:45:47.808Z,95167.06
2023-09-09T11:48:14.322Z,95165.25
2023-09-09T11:50:40.794Z,95161.31
2023-09-09T11:53:07.229Z,95163.34
2023-09-09T11:55:33.676Z,95156.53
2023-09-09T11:58:00.188Z,95163.34
2023-09-09T12:00:26.713Z,95164.72
2023-09-09T12:02:53.190Z,95163.25
2023-09-09T12:05:19.635Z,95157.00
2023-09-09T12:07:46.099Z,95160.84
2023-09-09T12:10:12.537Z,95157.59
2023-09-09T12:12:38.958Z,95156.69
2023-09-09T12:15:05.443Z,95156.97
2023-09-09T12:17:32.105Z,95161.50
2023-09-09T12:19:58.711Z,95152.91
2023-09-09T12:22:25.137Z,95153.41
2023-09-09T12:24:51.557Z,95152.72
2023-09-09T12:27:17.959Z,95158.72
2023-09-09T12:29:44.389Z,95155.59
2023-09-09T12:32:10.825Z,95153.66
2023-09-09T12:34:37.296Z,95152.56
2023-09-09T12:37:03.735Z,95147.63
2023-09-09T12:39:30.186Z,95148.44
2023-09-09T12:41:56.644Z,95141.94
2023-09-09T12:44:23.149Z,95146.88
2023-09-09T12:46:49.625Z,95147.59
2023-09-09T12:49:16.040Z,95140.00
2023-09-09T12:51:42.533Z,95144.84
2023-09-09T12:54:08.997Z,95148.84
2023-09-09T12:56:35.534Z,95140.47
2023-09-09T12:59:02.010Z,95139.88
2023-09-09T13:01:28.554Z,95144.72
2023-09-09T13:03:55.106Z,95140.81
2023-09-09T13:06:21.646Z,95147.06
2023-09-09T13:08:48.154Z,95136.56
2023-09-09T13:11:14.690Z,95140.31
2023-09-09T13:13:41.610Z,95134.63
2023-09-09T13:16:08.404Z,95129.63
2023-09-09T13:18:34.997Z,95127.31
2023-09-09T13:21:01.451Z,95127.94
2023-09-09T13:23:36.025Z,95128.28
2023-09-09T13:26:02.471Z,95130.19
2023-09-09T13:28:28.891Z,95128.09
2023-09-09T13:30:55.373Z,95120.44
2023-09-09T13:33:21.898Z,95121.38
2023-09-09T13:35:48.410Z,95119.69
2023-09-09T13:38:14.855Z,95132.38
2023-09-09T13:40:41.438Z,95125.81
2023-09-09T13:43:07.920Z,95118.66
2023-09-09T13:45:34.563Z,95125.25
2023-09-09T13:48:01.037Z,95112.06
2023-09-09T13:50:27.526Z,95120.44
2023-09-09T13:52:54.108Z,95110.84
2023-09-09T13:55:20.572Z,95117.44
2023-09-09T13:57:47.016Z,95115.38
2023-09-09T14:00:13.464Z,95113.44
2023-09-09T14:02:40.086Z,95104.13
2023-09-09T14:05:06.644Z,95102.81
2023-09-09T14:07:33.072Z,95097.75
2023-09-09T14:09:59.495Z,95097.38
2023-09-09T14:12:25.925Z,95098.34
2023-09-09T14:14:52.406Z,95101.97
2023-09-09T14:17:18.827Z,95097.47
2023-09-09T14:19:45.304Z,95095.66
2023-09-09T14:22:11.762Z,95094.81
2023-09-09T14:24:38.246Z,95090.72
2023-09-09T14:27:04.732Z,95092.69
2023-09-09T14:29:31.194Z,95092.56
2023-09-09T14:31:57.673Z,95086.69
2023-09-09T14:34:24.131Z,95084.09
2023-09-09T14:36:50.722Z,95084.81
2023-09-09T14:39:17.165Z,95089.03
2023-09-09T14:41:43.620Z,95087.19
2023-09-09T14:44:10.080Z,95089.44
2023-09-09T14:46:36.603Z,95081.13
2023-09-09T14:49:03.050Z,95085.56
2023-09-09T14:51:29.509Z,95083.88
2023-09-09T14:53:55.985Z,95084.03
2023-09-09T14:56:22.437Z,95088.88
2023-09-09T14:58:48.871Z,95083.03
2023-09-09T15:01:15.318Z,95077.00
2023-09-09T15:03:41.796Z,95081.00
2023-09-09T15:06:08.228Z,95086.94
2023-09-09T15:08:34.680Z,95086.81
2023-09-09T15:11:01.105Z,95081.81
2023-09-09T15:13:27.510Z,95084.34
2023-09-09T15:15:53.939Z,95081.78
2023-09-09T15:18:20.458Z,95079.03
2023-09-09T15:20:46.969Z,95093.69
2023-09-09T15:23:13.391Z,95082.03
2023-09-09T15:25:39.872Z,95088.94
2023-09-09T15:28:06.370Z,95081.44
2023-09-09T15:30:32.858Z,95088.38
2023-09-09T15:32:59.441Z,95084.50
2023-09-09T15:35:25.951Z,95082.41
2023-09-09T15:37:52.448Z,95069.06
2023-09-09T15:40:19.031Z,95069.97
2023-09-09T15:42:45.528Z,95067.28
2023-09-09T15:45:11.977Z,95065.25
2023-09-09T15:47:38.470Z,95073.78
2023-09-09T15:50:04.972Z,95063.59
2023-09-09T15:52:31.432Z,95066.06
2023-09-09T15:54:57.906Z,95057.59
2023-09-09T15:57:24.350Z,95065.13
2023-09-09T15:59:50.792Z,95071.94
2023-09-09T16:02:17.312Z,95066.91
2023-09-09T16:04:43.875Z,95067.44
2023-09-09T16:07:10.436Z,95074.28
2023-09-09T16:09:36.932Z,95070.13
2023-09-09T16:12:03.369Z,95073.69
2023-09-09T16:14:30.152Z,95077.94
2023-09-09T16:16:56.628Z,95076.19
2023-09-09T16:19:23.128Z,95077.13
2023-09-09T16:21:49.655Z,95072.63
2023-09-09T16:24:16.089Z,95074.09
2023-09-09T16:26:42.528Z,95082.72
2023-09-09T16:29:09.046Z,95070.41
2023-09-09T16:31:35.624Z,95082.66
2023-09-09T16:34:02.130Z,95080.69
2023-09-09T16:36:28.704Z,95075.41
2023-09-09T16:38:55.266Z,95078.78
2023-09-09T16:41:21.672Z,95072.44
2023-09-09T16:43:48.206Z,95079.22
2023-09-09T16:46:14.688Z,95079.03
2023-09-09T16:48:41.311Z,95075.91
2023-09-09T16:51:07.780Z,95081.91
2023-09-09T16:53:34.310Z,95076.44
2023-09-09T16:56:00.792Z,95082.00
2023-09-09T16:58:27.314Z,95072.66
2023-09-09T17:00:53.796Z,95079.22
2023-09-09T17:03:20.317Z,95084.81
2023-09-09T17:05:47.247Z,95079.44
2023-09-09T17:08:13.840Z,95089.38
2023-09-09T17:10:40.344Z,95085.44
2023-09-09T17:13:06.785Z,95078.47
2023-09-09T17:15:33.229Z,95084.25
2023-09-09T17:17:59.728Z,95083.75
2023-09-09T17:20:26.213Z,95081.13
2023-09-09T17:22:52.667Z,95073.34
2023-09-09T17:25:19.177Z,95075.41
2023-09-09T17:27:45.638Z,95080.38
2023-09-09T17:30:12.078Z,95087.03
2023-09-09T17:32:38.551Z,95085.59
2023-09-09T17:35:04.990Z,95085.47
2023-09-09T17:37:31.417Z,95094.56
2023-09-09T17:39:57.864Z,95087.72
2023-09-09T17:42:24.304Z,95087.66
2023-09-09T17:44:50.778Z,95085.34
2023-09-09T17:47:17.282Z,95088.94
2023-09-09T17:49:43.737Z,95093.88
2023-09-09T17:52:11.604Z,95093.03
2023-09-09T17:54:38.123Z,95087.81
2023-09-09T17:57:04.536Z,95095.25
2023-09-09T17:59:31.729Z,95091.00
2023-09-09T18:01:58.210Z,95089.66
2023-09-09T18:04:24.831Z,95095.63
2023-09-09T18:06:51.356Z,95098.66
2023-09-09T18:09:17.784Z,95100.00
2023-09-09T18:11:44.234Z,95098.38
2023-09-09T18:14:10.689Z,95107.25
2023-09-09T18:16:37.179Z,95101.81
2023-09-09T18:19:03.701Z,95109.34
2023-09-09T18:21:30.157Z,95109.66
2023-09-09T18:23:56.597Z,95109.22
2023-09-09T18:26:23.065Z,95111.56
2023-09-09T18:28:49.529Z,95110.88
2023-09-09T18:31:16.048Z,95112.72
2023-09-09T18:33:42.542Z,95118.47
2023-09-09T18:36:08.998Z,95115.22
2023-09-09T18:38:35.477Z,95119.53
2023-09-09T18:41:03.835Z,95125.78
2023-09-09T18:43:30.763Z,95120.59
2023-09-09T18:45:57.261Z,95126.41
2023-09-09T18:48:23.707Z,95126.19
2023-09-09T18:50:50.166Z,95132.38
2023-09-09T18:53:16.617Z,95140.41
2023-09-09T18:55:43.162Z,95136.94
2023-09-09T18:58:09.724Z,95140.91
2023-09-09T19:00:36.262Z,95140.69
2023-09-09T19:03:02.969Z,95136.75
2023-09-09T19:05:29.724Z,95136.28
2023-09-09T19:07:56.334Z,95143.34
2023-09-09T19:10:22.883Z,95141.38
2023-09-09T19:12:49.380Z,95136.44
2023-09-09T19:15:15.856Z,95140.44
2023-09-09T19:17:42.337Z,95143.47
2023-09-09T19:20:08.909Z,95146.22
2023-09-09T19:22:35.469Z,95144.50
2023-09-09T19:25:01.905Z,95148.00
2023-09-09T19:27:28.394Z,95150.75
2023-09-09T19:29:54.979Z,95155.53
2023-09-09T19:32:21.525Z,95159.28
2023-09-09T19:34:48.089Z,95152.81
2023-09-09T19:37:14.578Z,95153.34
2023-09-09T19:39:41.017Z,95161.78
2023-09-09T19:42:07.489Z,95159.53
2023-09-09T19:44:33.933Z,95158.34
2023-09-09T19:47:00.424Z,95157.63
2023-09-09T19:49:26.919Z,95168.31
2023-09-09T19:51:53.347Z,95166.81
2023-09-09T19:54:19.785Z,95164.59
2023-09-09T19:56:46.257Z,95164.09
2023-09-09T19:59:12.716Z,95161.88
2023-09-09T20:01:39.246Z,95161.41
2023-09-09T20:04:05.808Z,95164.16
2023-09-09T20:06:32.273Z,95164.44
2023-09-09T20:08:58.732Z,95165.66
2023-09-09T20:11:25.188Z,95168.94
2023-09-09T20:13:51.675Z,95166.44
2023-09-09T20:16:18.194Z,95168.66
2023-09-09T20:18:44.640Z,95164.44
2023-09-09T20:21:11.074Z,95168.44
2023-09-09T20:23:37.504Z,95168.94
2023-09-09T20:26:03.985Z,95167.47
2023-09-09T20:28:30.435Z,95164.81
2023-09-09T20:30:56.922Z,95162.09
2023-09-09T20:33:23.419Z,95166.00
2023-09-09T20:35:49.871Z,95158.56
2023-09-09T20:38:16.308Z,95163.00
2023-09-09T20:40:42.809Z,95163.81
2023-09-09T20:43:09.352Z,95161.09
2023-09-09T20:45:35.769Z,95170.81
2023-09-09T20:48:02.428Z,95164.63
2023-09-09T20:50:28.942Z,95163.41
2023-09-09T20:52:55.416Z,95167.34
2023-09-09T20:55:21.930Z,95171.78
2023-09-09T20:57:48.386Z,95172.78
2023-09-09T21:00:14.831Z,95172.03
2023-09-09T21:02:41.286Z,95173.50
2023-09-09T21:05:07.768Z,95172.53
2023-09-09T21:07:34.312Z,95172.03
2023-09-09T21:10:00.793Z,95178.47
2023-09-09T21:12:27.261Z,95180.69
2023-09-09T21:14:53.763Z,95180.94
2023-09-09T21:17:20.292Z,95186.63
2023-09-09T21:19:46.855Z,95183.41
2023-09-09T21:22:13.333Z,95177.72
2023-09-09T21:24:39.771Z,95177.72
2023-09-09T21:27:06.219Z,95177.72
2023-09-09T21:29:32.648Z,95177.72
2023-09-09T21:31:59.321Z,95174.75
2023-09-09T21:34:26.341Z,95174.28
2023-09-09T21:36:52.930Z,95180.47
2023-09-09T21:39:19.538Z,95179.25
2023-09-09T21:41:46.358Z,95176.28
2023-09-09T21:44:13.214Z,95178.75
2023-09-09T21:46:39.750Z,95175.03
2023-09-09T21:49:06.247Z,95171.34
2023-09-09T21:51:32.681Z,95165.66
2023-09-09T21:53:59.145Z,95162.94
2023-09-09T21:56:27.972Z,95163.69
2023-09-09T21:58:54.454Z,95175.28
2023-09-09T22:01:20.920Z,95167.38
2023-09-09T22:03:47.444Z,95171.09
2023-09-09T22:06:14.017Z,95172.56
2023-09-09T22:08:40.694Z,95176.78
2023-09-09T22:11:07.270Z,95172.34
2023-09-09T22:13:33.724Z,95169.84
2023-09-09T22:16:02.532Z,95169.34
2023-09-09T22:18:29.005Z,95172.81
2023-09-09T22:20:55.484Z,95179.75
2023-09-09T22:23:21.943Z,95181.97
2023-09-09T22:25:48.382Z,95177.78
2023-09-09T22:28:14.833Z,95175.56
2023-09-09T22:30:41.315Z,95181.00
2023-09-09T22:33:07.839Z,95180.50
2023-09-09T22:35:34.386Z,95186.94
2023-09-09T22:38:00.828Z,95186.19
2023-09-09T22:40:27.388Z,95182.22
2023-09-09T22:42:53.865Z,95187.16
2023-09-09T22:45:20.325Z,95189.91
2023-09-09T22:47:46.845Z,95189.91
2023-09-09T22:50:13.291Z,95187.66
2023-09-09T22:52:39.810Z,95189.66
2023-09-09T22:55:06.335Z,95196.31
2023-09-09T22:57:32.803Z,95193.09
2023-09-09T22:59:59.236Z,95194.09
2023-09-09T23:02:25.825Z,95187.91
2023-09-09T23:04:52.556Z,95193.34
2023-09-09T23:07:19.122Z,95185.94
2023-09-09T23:09:45.603Z,95193.84
2023-09-09T23:12:12.056Z,95189.63
2023-09-09T23:14:38.513Z,95193.59
2023-09-09T23:17:04.963Z,95191.13
2023-09-09T23:19:31.529Z,95191.84
2023-09-09T23:21:57.951Z,95195.81
2023-09-09T23:24:24.452Z,95193.34
2023-09-09T23:26:50.882Z,95192.84
2023-09-09T23:29:17.351Z,95191.84
2023-09-09T23:31:43.865Z,95199.78
2023-09-09T23:34:10.472Z,95193.81
2023-09-09T23:36:36.932Z,95196.28
2023-09-09T23:39:03.416Z,95199.50
2023-09-09T23:41:29.843Z,95200.75
2023-09-09T23:43:56.432Z,95205.69
2023-09-09T23:46:22.878Z,95196.03
2023-09-09T23:48:49.340Z,95193.78
2023-09-09T23:51:15.815Z,95193.78
2023-09-09T23:53:42.256Z,95197.00
2023-09-09T23:56:08.738Z,95193.03
2023-09-09T23:58:35.265Z,95198.44
